createdAt,value
2019-05-14T00:00:41.111Z,13.23
2019-05-14T00:03:48.362Z,12.20
2019-05-14T00:06:55.899Z,13.27
2019-05-14T00:10:03.420Z,13.77
2019-05-14T00:13:12.073Z,13.30
2019-05-14T00:16:22.255Z,13.27
2019-05-14T00:19:29.119Z,13.23
2019-05-14T00:22:36.772Z,14.27
2019-05-14T00:25:44.253Z,14.03
2019-05-14T00:28:51.866Z,12.23
2019-05-14T00:32:01.739Z,13.27
2019-05-14T00:35:08.499Z,15.27
2019-05-14T00:38:15.963Z,15.97
2019-05-14T00:41:23.425Z,17.37
2019-05-14T00:44:32.312Z,17.40
2019-05-14T00:47:41.859Z,16.07
2019-05-14T00:50:51.604Z,14.03
2019-05-14T00:54:01.555Z,19.50
2019-05-14T00:57:08.623Z,19.67
2019-05-14T01:00:16.551Z,18.87
2019-05-14T01:03:24.145Z,17.27
2019-05-14T01:06:31.687Z,16.57
2019-05-14T01:09:41.830Z,15.80
2019-05-14T01:12:48.562Z,15.23
2019-05-14T01:15:56.013Z,15.60
2019-05-14T01:19:03.526Z,16.53
2019-05-14T01:22:12.503Z,15.67
2019-05-14T01:25:23.284Z,17.57
2019-05-14T01:28:29.285Z,18.70
2019-05-14T01:31:36.706Z,19.53
2019-05-14T01:34:44.297Z,19.60
2019-05-14T01:37:52.769Z,19.20
2019-05-14T01:41:01.801Z,18.50
2019-05-14T01:44:11.818Z,19.67
2019-05-14T01:47:18.573Z,22.77
2019-05-14T01:50:26.010Z,21.10
2019-05-14T01:53:33.443Z,19.90
2019-05-14T01:56:42.431Z,20.13
2019-05-14T01:59:51.667Z,19.40
2019-05-14T02:03:01.583Z,18.70
2019-05-14T02:06:08.838Z,18.10
2019-05-14T02:09:17.670Z,15.83
2019-05-14T02:12:25.883Z,15.43
2019-05-14T02:15:39.196Z,17.00
2019-05-14T02:18:43.165Z,16.93
2019-05-14T02:21:51.642Z,20.17
2019-05-14T02:24:59.076Z,20.73
2019-05-14T02:28:06.579Z,18.63
2019-05-14T02:31:14.116Z,19.10
2019-05-14T02:34:21.647Z,19.33
2019-05-14T02:37:30.136Z,22.27
2019-05-14T02:40:40.391Z,21.90
2019-05-14T02:43:49.938Z,20.13
2019-05-14T02:46:59.065Z,16.37
2019-05-14T02:50:05.335Z,18.40
2019-05-14T02:53:12.799Z,21.03
2019-05-14T02:56:20.646Z,21.80
2019-05-14T02:59:30.522Z,22.40
2019-05-14T03:02:40.452Z,22.37
2019-05-14T03:05:49.555Z,25.73
2019-05-14T03:08:56.133Z,20.43
2019-05-14T03:12:03.579Z,20.73
2019-05-14T03:15:11.562Z,21.23
2019-05-14T03:18:20.057Z,25.50
2019-05-14T03:21:30.293Z,22.97
2019-05-14T03:24:39.399Z,23.23
2019-05-14T03:27:49.403Z,23.40
2019-05-14T03:30:54.972Z,24.33
2019-05-14T03:34:03.636Z,24.30
2019-05-14T03:37:13.303Z,23.93
2019-05-14T03:40:20.651Z,30.77
2019-05-14T03:43:29.616Z,25.20
2019-05-14T03:46:46.064Z,32.10
2019-05-14T03:49:49.945Z,27.70
2019-05-14T03:52:59.368Z,24.37
2019-05-14T03:56:06.069Z,25.87
2019-05-14T03:59:13.749Z,23.90
2019-05-14T04:02:21.173Z,26.37
2019-05-14T04:05:29.446Z,20.93
2019-05-14T04:08:39.267Z,23.80
2019-05-14T04:11:50.128Z,21.60
2019-05-14T04:14:59.815Z,21.17
2019-05-14T04:18:09.119Z,19.97
2019-05-14T04:21:20.424Z,21.60
2019-05-14T04:24:31.138Z,25.57
2019-05-14T04:27:44.037Z,25.73
2019-05-14T04:30:54.271Z,26.50
2019-05-14T04:34:03.691Z,26.00
2019-05-14T04:37:12.998Z,25.47
2019-05-14T04:40:20.545Z,27.87
2019-05-14T04:43:29.354Z,26.43
2019-05-14T04:46:39.437Z,25.07
2019-05-14T04:49:50.213Z,34.40
2019-05-14T04:52:59.602Z,32.37
2019-05-14T04:56:05.458Z,27.20
2019-05-14T04:59:12.933Z,24.93
2019-05-14T05:02:20.456Z,24.27
2019-05-14T05:05:29.950Z,29.87
2019-05-14T05:08:39.513Z,30.60
2019-05-14T05:11:46.112Z,31.67
2019-05-14T05:14:53.534Z,26.90
2019-05-14T05:18:01.046Z,24.50
2019-05-14T05:21:08.826Z,23.73
2019-05-14T05:24:18.296Z,24.23
2019-05-14T05:27:25.335Z,23.23
2019-05-14T05:30:32.767Z,25.13
2019-05-14T05:33:40.538Z,22.67
2019-05-14T05:36:48.987Z,21.47
2019-05-14T05:39:58.336Z,23.60
2019-05-14T05:43:05.525Z,25.87
2019-05-14T05:46:12.979Z,27.87
2019-05-14T05:49:20.470Z,29.83
2019-05-14T05:52:28.390Z,36.57
2019-05-14T05:55:36.043Z,34.70
2019-05-14T05:58:43.876Z,29.40
2019-05-14T06:01:54.287Z,28.33
2019-05-14T06:05:01.110Z,22.73
2019-05-14T06:08:08.763Z,24.73
2019-05-14T06:11:19.112Z,22.83
2019-05-14T06:14:25.534Z,20.40
2019-05-14T06:17:33.180Z,18.60
2019-05-14T06:20:40.667Z,13.33
2019-05-14T06:23:48.956Z,12.00
2019-05-14T06:26:58.763Z,12.93
2019-05-14T06:30:09.225Z,11.80
2019-05-14T06:33:19.401Z,15.73
2019-05-14T06:36:25.882Z,11.53
2019-05-14T06:39:33.424Z,12.60
2019-05-14T06:42:40.907Z,15.00
2019-05-14T06:45:49.523Z,13.97
2019-05-14T06:48:58.996Z,11.80
2019-05-14T06:52:08.771Z,12.93
2019-05-14T06:55:17.902Z,13.27
2019-05-14T06:58:24.902Z,11.20
2019-05-14T07:01:32.378Z,9.37
2019-05-14T07:04:40.120Z,9.60
2019-05-14T07:07:49.557Z,10.50
2019-05-14T07:10:59.313Z,9.17
2019-05-14T07:14:10.728Z,11.23
2019-05-14T07:17:15.218Z,9.23
2019-05-14T07:20:22.774Z,9.00
2019-05-14T07:23:30.365Z,7.70
2019-05-14T07:26:38.744Z,7.20
2019-05-14T07:29:48.991Z,9.50
2019-05-14T07:32:55.638Z,7.03
2019-05-14T07:36:03.190Z,7.53
2019-05-14T07:39:10.688Z,7.77
2019-05-14T07:42:18.414Z,7.20
2019-05-14T07:45:26.014Z,7.73
2019-05-14T07:48:33.458Z,8.93
2019-05-14T07:51:40.958Z,11.40
2019-05-14T07:54:48.367Z,13.53
2019-05-14T07:57:55.972Z,9.97
2019-05-14T08:01:03.482Z,11.37
2019-05-14T08:04:11.798Z,13.40
2019-05-14T08:07:21.586Z,13.20
2019-05-14T08:10:29.128Z,11.70
2019-05-14T08:13:38.781Z,12.43
2019-05-14T08:16:45.845Z,9.77
2019-05-14T08:19:53.307Z,8.83
2019-05-14T08:23:00.773Z,7.40
2019-05-14T08:26:08.223Z,6.97
2019-05-14T08:29:18.093Z,8.97
2019-05-14T08:32:25.670Z,8.30
2019-05-14T08:35:35.115Z,8.03
2019-05-14T08:38:45.447Z,9.30
2019-05-14T08:41:59.602Z,7.50
2019-05-14T08:45:04.778Z,9.30
2019-05-14T08:48:10.597Z,6.40
2019-05-14T08:51:18.656Z,4.90
2019-05-14T08:54:28.433Z,5.70
2019-05-14T08:57:35.413Z,6.23
2019-05-14T09:00:42.938Z,6.10
2019-05-14T09:03:50.455Z,8.20
2019-05-14T09:06:58.441Z,7.23
2019-05-14T09:10:08.662Z,6.33
2019-05-14T09:13:18.211Z,7.80
2019-05-14T09:16:41.838Z,8.57
2019-05-14T09:19:34.034Z,8.43
2019-05-14T09:22:41.474Z,9.33
2019-05-14T09:25:53.063Z,8.83
2019-05-14T09:28:58.680Z,10.40
2019-05-14T09:32:06.278Z,8.63
2019-05-14T09:35:14.028Z,7.10
2019-05-14T09:38:21.472Z,7.40
2019-05-14T09:41:30.948Z,12.50
2019-05-14T09:44:38.693Z,7.27
2019-05-14T09:47:50.294Z,10.80
2019-05-14T09:50:55.796Z,11.60
2019-05-14T09:54:03.288Z,12.60
2019-05-14T09:57:10.856Z,13.83
2019-05-14T10:00:19.084Z,14.47
2019-05-14T10:03:26.720Z,12.97
2019-05-14T10:06:34.221Z,12.13
2019-05-14T10:09:41.748Z,12.90
2019-05-14T10:12:54.180Z,12.17
2019-05-14T10:15:59.111Z,10.33
2019-05-14T10:19:06.679Z,16.07
2019-05-14T10:22:14.596Z,15.50
2019-05-14T10:25:22.094Z,15.00
2019-05-14T10:28:29.488Z,14.90
2019-05-14T10:31:39.575Z,12.60
2019-05-14T10:34:48.342Z,9.53
2019-05-14T10:37:55.144Z,13.50
2019-05-14T10:41:02.773Z,14.53
2019-05-14T10:44:11.959Z,12.87
2019-05-14T10:47:19.368Z,16.00
2019-05-14T10:50:28.827Z,17.50
2019-05-14T10:53:35.904Z,13.77
2019-05-14T10:56:43.429Z,15.63
2019-05-14T10:59:50.932Z,15.83
2019-05-14T11:02:58.361Z,13.50
2019-05-14T11:06:05.782Z,10.90
2019-05-14T11:09:14.248Z,11.03
2019-05-14T11:12:21.665Z,14.60
2019-05-14T11:15:29.206Z,17.50
2019-05-14T11:18:39.581Z,19.40
2019-05-14T11:21:45.815Z,20.83
2019-05-14T11:24:54.993Z,23.70
2019-05-14T11:28:02.480Z,23.93
2019-05-14T11:31:09.926Z,22.10
2019-05-14T11:34:19.265Z,18.80
2019-05-14T11:37:28.109Z,22.90
2019-05-14T11:40:38.548Z,25.40
2019-05-14T11:43:45.027Z,24.37
2019-05-14T11:46:57.857Z,20.80
2019-05-14T11:50:01.657Z,13.80
2019-05-14T11:53:09.430Z,15.90
2019-05-14T11:56:19.188Z,17.60
2019-05-14T11:59:28.328Z,19.10
2019-05-14T12:02:35.184Z,18.40
2019-05-14T12:05:42.754Z,20.03
2019-05-14T12:08:50.178Z,18.53
2019-05-14T12:11:58.674Z,22.13
2019-05-14T12:15:08.846Z,22.83
2019-05-14T12:18:18.419Z,28.77
2019-05-14T12:21:25.730Z,25.23
2019-05-14T12:24:33.173Z,25.00
2019-05-14T12:27:40.612Z,21.50
2019-05-14T12:30:48.942Z,22.50
2019-05-14T12:33:58.384Z,23.30
2019-05-14T12:37:06.011Z,23.07
2019-05-14T12:40:13.712Z,21.57
2019-05-14T12:43:21.235Z,24.77
2019-05-14T12:46:29.405Z,25.80
2019-05-14T12:49:38.717Z,27.13
2019-05-14T12:52:48.259Z,24.07
2019-05-14T12:55:55.291Z,26.37
2019-05-14T12:59:02.760Z,26.23
2019-05-14T13:02:10.314Z,30.23
2019-05-14T13:05:18.537Z,31.23
2019-05-14T13:08:26.378Z,31.50
2019-05-14T13:11:33.921Z,39.63
2019-05-14T13:14:41.480Z,29.27
2019-05-14T13:17:49.124Z,26.37
2019-05-14T13:20:56.617Z,29.33
2019-05-14T13:24:05.126Z,28.67
2019-05-14T13:27:12.668Z,30.60
2019-05-14T13:30:20.640Z,28.17
2019-05-14T13:33:28.532Z,27.00
2019-05-14T13:36:36.138Z,29.07
2019-05-14T13:39:43.782Z,29.77
2019-05-14T13:42:51.356Z,31.20
2019-05-14T13:45:59.106Z,25.70
2019-05-14T13:49:06.884Z,22.47
2019-05-14T13:52:14.375Z,25.37
2019-05-14T13:55:22.001Z,25.07
2019-05-14T13:58:29.517Z,30.33
2019-05-14T14:01:37.019Z,25.27
2019-05-14T14:04:44.629Z,28.10
2019-05-14T14:07:52.150Z,28.70
2019-05-14T14:11:02.833Z,33.90
2019-05-14T14:14:09.079Z,31.83
2019-05-14T14:17:18.491Z,28.40
2019-05-14T14:20:25.784Z,28.47
2019-05-14T14:23:33.225Z,28.40
2019-05-14T14:26:40.743Z,28.80
2019-05-14T14:29:49.283Z,29.87
2019-05-14T14:32:58.743Z,29.60
2019-05-14T14:36:06.328Z,29.70
2019-05-14T14:39:13.827Z,35.90
2019-05-14T14:42:21.330Z,35.43
2019-05-14T14:45:29.455Z,30.43
2019-05-14T14:48:39.593Z,26.73
2019-05-14T14:51:46.185Z,22.87
2019-05-14T14:54:53.649Z,20.67
2019-05-14T14:58:01.222Z,23.73
2019-05-14T15:01:09.056Z,26.00
2019-05-14T15:04:19.474Z,25.43
2019-05-14T15:07:29.435Z,32.00
2019-05-14T15:10:35.423Z,35.80
2019-05-14T15:13:43.082Z,37.43
2019-05-14T15:16:50.769Z,34.53
2019-05-14T15:19:59.462Z,35.00
2019-05-14T15:23:09.863Z,35.80
2019-05-14T15:26:19.230Z,36.67
2019-05-14T15:29:28.318Z,34.90
2019-05-14T15:32:35.287Z,38.67
2019-05-14T15:35:44.405Z,39.07
2019-05-14T15:38:52.871Z,39.73
2019-05-14T15:42:05.603Z,38.90
2019-05-14T15:45:10.204Z,46.27
2019-05-14T15:48:19.939Z,48.40
2019-05-14T15:51:28.589Z,50.70
2019-05-14T15:54:46.417Z,53.03
2019-05-14T15:57:45.530Z,52.17
2019-05-14T16:00:53.204Z,47.40
2019-05-14T16:04:00.841Z,41.33
2019-05-14T16:07:09.484Z,49.40
2019-05-14T16:10:21.674Z,49.50
2019-05-14T16:13:28.658Z,51.97
2019-05-14T16:16:39.011Z,46.40
2019-05-14T16:19:45.399Z,44.87
2019-05-14T16:22:52.981Z,41.80
2019-05-14T16:26:00.492Z,35.73
2019-05-14T16:29:08.960Z,27.43
2019-05-14T16:32:16.918Z,29.30
2019-05-14T16:35:24.411Z,24.30
2019-05-14T16:38:32.045Z,23.30
2019-05-14T16:41:40.163Z,22.90
2019-05-14T16:44:48.065Z,25.63
2019-05-14T16:47:55.556Z,32.75
2019-05-14T16:51:03.028Z,36.63
2019-05-14T16:54:10.541Z,33.60
2019-05-14T16:57:18.544Z,31.50
2019-05-14T17:00:26.269Z,31.50
2019-05-14T17:03:33.728Z,32.17
2019-05-14T17:06:41.294Z,35.40
2019-05-14T17:09:49.275Z,31.80
2019-05-14T17:13:00.597Z,34.20
2019-05-14T17:16:08.327Z,37.57
2019-05-14T17:19:15.501Z,36.07
2019-05-14T17:22:28.962Z,33.87
2019-05-14T17:25:32.359Z,34.43
2019-05-14T17:28:40.931Z,31.87
2019-05-14T17:31:49.469Z,32.70
2019-05-14T17:34:57.077Z,31.77
2019-05-14T17:38:05.564Z,31.27
2019-05-14T17:41:12.993Z,32.20
2019-05-14T17:44:20.513Z,36.00
2019-05-14T17:47:29.092Z,41.73
2019-05-14T17:50:38.390Z,34.60
2019-05-14T17:53:48.132Z,28.70
2019-05-14T17:56:55.375Z,27.03
2019-05-14T18:00:03.073Z,25.50
2019-05-14T18:03:10.901Z,22.20
2019-05-14T18:06:19.021Z,64.37
2019-05-14T18:09:29.086Z,23.37
2019-05-14T18:12:35.785Z,22.30
2019-05-14T18:15:44.055Z,21.63
2019-05-14T18:18:51.710Z,21.20
2019-05-14T18:21:59.482Z,21.70
2019-05-14T18:25:07.559Z,23.90
2019-05-14T18:28:15.133Z,22.30
2019-05-14T18:31:22.723Z,20.13
2019-05-14T18:34:30.305Z,27.77
2019-05-14T18:37:39.020Z,28.97
2019-05-14T18:40:46.579Z,30.20
2019-05-14T18:43:54.140Z,35.37
2019-05-14T18:47:01.603Z,38.83
2019-05-14T18:50:09.872Z,42.23
2019-05-14T18:53:19.070Z,45.20
2019-05-14T18:56:29.123Z,48.03
2019-05-14T18:59:38.925Z,50.83
2019-05-14T19:02:45.489Z,52.10
2019-05-14T19:05:52.958Z,52.73
2019-05-14T19:09:00.374Z,53.97
2019-05-14T19:12:08.366Z,50.27
2019-05-14T19:15:18.393Z,39.97
2019-05-14T19:18:25.295Z,39.00
2019-05-14T19:21:34.067Z,25.63
2019-05-14T19:24:41.493Z,27.33
2019-05-14T19:27:48.917Z,26.17
2019-05-14T19:30:56.576Z,25.93
2019-05-14T19:34:04.156Z,26.77
2019-05-14T19:37:11.830Z,30.53
2019-05-14T19:40:19.518Z,32.90
2019-05-14T19:43:29.084Z,32.97
2019-05-14T19:46:38.642Z,40.70
2019-05-14T19:49:48.476Z,38.90
2019-05-14T19:52:55.461Z,38.97
2019-05-14T19:56:02.929Z,36.80
2019-05-14T19:59:10.745Z,38.87
2019-05-14T20:02:18.519Z,34.30
2019-05-14T20:05:28.459Z,31.70
2019-05-14T20:08:35.323Z,29.80
2019-05-14T20:11:42.786Z,32.20
2019-05-14T20:14:50.329Z,33.40
2019-05-14T20:17:58.269Z,35.40
2019-05-14T20:21:05.877Z,37.10
2019-05-14T20:24:13.415Z,35.07
2019-05-14T20:27:21.101Z,38.90
2019-05-14T20:30:29.491Z,39.17
2019-05-14T20:33:37.120Z,36.87
2019-05-14T20:36:44.583Z,37.40
2019-05-14T20:39:52.161Z,34.07
2019-05-14T20:42:59.769Z,31.40
2019-05-14T20:46:07.376Z,61.73
2019-05-14T20:49:14.898Z,26.97
2019-05-14T20:52:22.447Z,27.53
2019-05-14T20:55:29.869Z,25.50
2019-05-14T20:58:38.824Z,26.30
2019-05-14T21:01:47.639Z,27.47
2019-05-14T21:04:55.763Z,28.03
2019-05-14T21:08:04.374Z,26.87
2019-05-14T21:11:11.853Z,27.97
2019-05-14T21:14:19.361Z,25.97
2019-05-14T21:17:28.253Z,22.77
2019-05-14T21:20:35.775Z,22.83
2019-05-14T21:23:43.269Z,23.23
2019-05-14T21:26:50.889Z,22.90
2019-05-14T21:29:58.448Z,25.17
2019-05-14T21:33:08.202Z,23.87
2019-05-14T21:36:15.126Z,27.60
2019-05-14T21:39:22.749Z,33.27
2019-05-14T21:42:30.197Z,35.47
2019-05-14T21:45:38.325Z,40.80
2019-05-14T21:48:47.823Z,39.27
2019-05-14T21:51:55.397Z,39.60
2019-05-14T21:55:02.878Z,39.70
2019-05-14T21:58:11.898Z,45.00
2019-05-14T22:01:19.992Z,42.47
2019-05-14T22:04:28.942Z,39.83
2019-05-14T22:07:38.812Z,40.93
2019-05-14T22:10:48.705Z,39.37
2019-05-14T22:13:55.405Z,38.23
2019-05-14T22:17:02.829Z,33.77
2019-05-14T22:20:10.992Z,34.20
2019-05-14T22:23:21.145Z,45.03
2019-05-14T22:26:28.221Z,37.40
2019-05-14T22:29:35.772Z,34.53
2019-05-14T22:32:43.207Z,35.47
2019-05-14T22:35:50.850Z,34.23
2019-05-14T22:38:58.363Z,35.40
2019-05-14T22:42:05.801Z,35.50
2019-05-14T22:45:13.409Z,37.20
2019-05-14T22:48:20.917Z,34.17
2019-05-14T22:51:29.032Z,34.33
2019-05-14T22:54:38.475Z,31.93
2019-05-14T22:57:47.961Z,28.83
2019-05-14T23:01:12.796Z,30.30
2019-05-14T23:04:03.869Z,30.57
2019-05-14T23:07:11.334Z,30.73
2019-05-14T23:10:18.853Z,30.10
2019-05-14T23:13:28.078Z,32.73
2019-05-14T23:16:39.276Z,29.13
2019-05-14T23:19:45.053Z,27.30
2019-05-14T23:22:52.605Z,32.40
2019-05-14T23:26:01.320Z,27.97
2019-05-14T23:29:08.811Z,34.00
2019-05-14T23:32:18.925Z,36.20
2019-05-14T23:35:25.511Z,34.90
2019-05-14T23:38:33.127Z,35.93
2019-05-14T23:41:40.523Z,35.83
2019-05-14T23:44:49.236Z,35.80
2019-05-14T23:47:58.620Z,39.23
2019-05-14T23:51:07.943Z,38.63
2019-05-14T23:54:15.015Z,37.60
2019-05-14T23:57:22.418Z,44.77
